Mehtap Bayraktar — TCPB — position and weather

sailwx.info

Track history (hours):
 
Tides and Currents Weather Stations Pressure Air Temp Water Temp Dewpoint Dewpoint Depression Visibility Wind Speed Wind Dir Waves Ship Positions

Mehtap Bayraktar

Last reported at 2015-May-29 05:32 UTC. Time now 2015-May-29 08:23 UTC.
Position N 37°21' E 010°24'.

Length 114 m; draft 6.3 m.

Type: Ship (hazmat cat A). MMSI: 271000578.

Date/timePositionNaut miles runAvg speedWind from/ knotsBaromVisibWave heightAir tempDewpointWater temp
2015-May-29 05:32N 37°21' E 010°24'1211.8
2015-May-29 04:30N 37°23' E 010°39'1312.3
2015-May-29 03:25N 37°25' E 010°55'1411.4
2015-May-29 02:11N 37°25' E 011°13'912.2
2015-May-29 01:29N 37°21' E 011°22'1312.4
2015-May-29 00:26N 37°14' E 011°36'1211.3
2015-May-28 23:21N 37°03' E 011°41'1511.8
2015-May-28 22:06N 36°48' E 011°44'  
2015-May-25 22:10N 34°29' E 011°27'1311.6
2015-May-25 21:05N 34°35' E 011°41'611.6
2015-May-25 20:33N 34°38' E 011°48'1211.8
2015-May-25 19:32N 34°43' E 012°01'1111.1
2015-May-25 18:33N 34°52' E 012°08'2711.8
2015-May-25 16:17N 35°19' E 012°07'4411.8
2015-May-25 12:31N 36°03' E 011°58'2911.9
2015-May-25 10:04N 36°32' E 011°52'612.0
2015-May-25 09:33N 36°38' E 011°50'19011.8
2015-May-24 17:22N 38°30' E 008°37'27211.9
2015-May-23 18:33N 40°45' E 003°29'1312.2
2015-May-23 17:29N 40°52' E 003°15'1212.2
2015-May-23 16:32N 40°58' E 003°02'1212.2
2015-May-23 15:33N 41°04' E 002°48'1212.0
2015-May-23 14:32N 41°09' E 002°33'1211.8
2015-May-23 13:33N 41°14' E 002°19'  
Track history (hours):
 
Tides and Currents Weather Stations Pressure Air Temp Water Temp Dewpoint Dewpoint Depression Visibility Wind Speed Wind Dir Waves Ship Positions

Mehtap Bayraktar

Last reported at 2015-May-29 05:32 UTC. Time now 2015-May-29 08:23 UTC.
Position N 37°21' E 010°24'.

Length 114 m; draft 6.3 m.

Type: Ship (hazmat cat A). MMSI: 271000578.

Date/timePositionNaut miles runAvg speedWind from/ knotsBaromVisibWave heightAir tempDewpointWater temp
2015-May-29 05:32N 37°21' E 010°24'1211.8
2015-May-29 04:30N 37°23' E 010°39'1312.3
2015-May-29 03:25N 37°25' E 010°55'1411.4
2015-May-29 02:11N 37°25' E 011°13'912.2
2015-May-29 01:29N 37°21' E 011°22'1312.4
2015-May-29 00:26N 37°14' E 011°36'1211.3
2015-May-28 23:21N 37°03' E 011°41'1511.8
2015-May-28 22:06N 36°48' E 011°44'  
2015-May-25 22:10N 34°29' E 011°27'1311.6
2015-May-25 21:05N 34°35' E 011°41'611.6
2015-May-25 20:33N 34°38' E 011°48'1211.8
2015-May-25 19:32N 34°43' E 012°01'1111.1
2015-May-25 18:33N 34°52' E 012°08'2711.8
2015-May-25 16:17N 35°19' E 012°07'4411.8
2015-May-25 12:31N 36°03' E 011°58'2911.9
2015-May-25 10:04N 36°32' E 011°52'612.0
2015-May-25 09:33N 36°38' E 011°50'19011.8
2015-May-24 17:22N 38°30' E 008°37'27211.9
2015-May-23 18:33N 40°45' E 003°29'1312.2
2015-May-23 17:29N 40°52' E 003°15'1212.2
2015-May-23 16:32N 40°58' E 003°02'1212.2
2015-May-23 15:33N 41°04' E 002°48'1212.0
2015-May-23 14:32N 41°09' E 002°33'1211.8
2015-May-23 13:33N 41°14' E 002°19'  

Dump ship's entire track history